createdAt,value
2023-05-21T00:02:30.241Z,101453.78
2023-05-21T00:05:05.439Z,101462.72
2023-05-21T00:07:37.975Z,101453.00
2023-05-21T00:10:11.166Z,101455.81
2023-05-21T00:12:43.704Z,101461.19
2023-05-21T00:15:16.223Z,101441.84
2023-05-21T00:17:48.758Z,101441.75
2023-05-21T00:20:21.902Z,101438.41
2023-05-21T00:22:54.356Z,101444.50
2023-05-21T00:25:26.847Z,101441.84
2023-05-21T00:27:59.302Z,101434.09
2023-05-21T00:30:31.829Z,101435.09
2023-05-21T00:33:04.344Z,101442.16
2023-05-21T00:35:37.101Z,101441.38
2023-05-21T00:38:09.709Z,101430.81
2023-05-21T00:40:42.281Z,101432.81
2023-05-21T00:43:14.852Z,101437.16
2023-05-21T00:45:48.447Z,101437.16
2023-05-21T00:48:21.208Z,101436.25
2023-05-21T00:50:54.205Z,101427.50
2023-05-21T00:53:27.529Z,101432.09
2023-05-21T00:56:00.068Z,101431.13
2023-05-21T00:58:34.029Z,101420.59
2023-05-21T01:01:07.143Z,101423.25
2023-05-21T01:03:41.049Z,101417.84
2023-05-21T01:06:14.143Z,101422.38
2023-05-21T01:08:46.916Z,101420.00
2023-05-21T01:11:21.943Z,101425.19
2023-05-21T01:13:54.641Z,101426.22
2023-05-21T01:16:29.721Z,101424.59
2023-05-21T01:19:03.478Z,101421.94
2023-05-21T01:21:45.486Z,101423.75
2023-05-21T01:24:18.547Z,101421.22
2023-05-21T01:26:51.093Z,101414.13
2023-05-21T01:29:23.629Z,101419.59
2023-05-21T01:32:30.204Z,101415.66
2023-05-21T01:35:11.254Z,101416.56
2023-05-21T01:37:53.249Z,101417.66
2023-05-21T01:40:38.398Z,101415.06
2023-05-21T01:43:11.629Z,101415.16
2023-05-21T01:45:45.833Z,101414.25
2023-05-21T01:48:18.953Z,101417.72
2023-05-21T01:50:52.993Z,101415.09
2023-05-21T01:53:25.614Z,101401.88
2023-05-21T01:55:59.373Z,101410.56
2023-05-21T01:58:31.901Z,101406.22
2023-05-21T02:01:05.104Z,101407.84
2023-05-21T02:03:38.608Z,101405.25
2023-05-21T02:06:11.432Z,101404.09
2023-05-21T02:08:45.579Z,101403.22
2023-05-21T02:11:18.116Z,101398.94
2023-05-21T02:13:50.593Z,101390.69
2023-05-21T02:16:23.178Z,101396.78
2023-05-21T02:18:57.569Z,101394.28
2023-05-21T02:21:31.012Z,101397.59
2023-05-21T02:24:03.608Z,101389.41
2023-05-21T02:26:36.112Z,101395.56
2023-05-21T02:29:09.047Z,101395.56
2023-05-21T02:31:41.532Z,101402.66
2023-05-21T02:34:14.055Z,101400.81
2023-05-21T02:36:48.374Z,101400.88
2023-05-21T02:39:21.091Z,101398.13
2023-05-21T02:41:53.582Z,101399.75
2023-05-21T02:44:26.058Z,101389.09
2023-05-21T02:46:58.542Z,101384.56
2023-05-21T02:49:31.034Z,101391.69
2023-05-21T02:52:03.775Z,101395.91
2023-05-21T02:54:36.305Z,101384.16
2023-05-21T02:57:08.799Z,101384.63
2023-05-21T02:59:41.319Z,101381.03
2023-05-21T03:02:13.899Z,101373.97
2023-05-21T03:04:46.741Z,101382.81
2023-05-21T03:07:19.766Z,101381.13
2023-05-21T03:09:52.449Z,101376.56
2023-05-21T03:12:24.898Z,101370.13
2023-05-21T03:14:57.388Z,101371.31
2023-05-21T03:17:29.848Z,101364.25
2023-05-21T03:20:05.155Z,101364.31
2023-05-21T03:22:37.596Z,101361.84
2023-05-21T03:25:11.958Z,101367.03
2023-05-21T03:27:44.425Z,101373.13
2023-05-21T03:30:16.961Z,101365.94
2023-05-21T03:32:49.777Z,101360.75
2023-05-21T03:35:22.308Z,101367.75
2023-05-21T03:37:54.766Z,101372.41
2023-05-21T03:40:27.369Z,101370.47
2023-05-21T03:42:59.840Z,101369.25
2023-05-21T03:45:32.388Z,101366.91
2023-05-21T03:48:05.152Z,101365.59
2023-05-21T03:50:37.650Z,101368.19
2023-05-21T03:53:10.859Z,101369.72
2023-05-21T03:55:43.448Z,101367.06
2023-05-21T03:58:15.880Z,101366.94
2023-05-21T04:00:48.573Z,101359.06
2023-05-21T04:03:21.268Z,101363.81
2023-05-21T04:05:53.965Z,101360.19
2023-05-21T04:08:26.977Z,101367.75
2023-05-21T04:10:59.513Z,101364.34
2023-05-21T04:13:32.208Z,101370.00
2023-05-21T04:16:05.075Z,101365.41
2023-05-21T04:18:37.581Z,101371.19
2023-05-21T04:21:10.035Z,101363.63
2023-05-21T04:23:42.511Z,101368.16
2023-05-21T04:26:16.184Z,101367.75
2023-05-21T04:28:48.683Z,101372.75
2023-05-21T04:31:22.725Z,101379.53
2023-05-21T04:33:55.225Z,101370.19
2023-05-21T04:36:29.004Z,101378.25
2023-05-21T04:39:02.465Z,101383.00
2023-05-21T04:41:35.414Z,101379.75
2023-05-21T04:44:08.405Z,101376.72
2023-05-21T04:46:41.956Z,101384.03
2023-05-21T04:49:15.359Z,101380.03
2023-05-21T04:51:49.378Z,101380.66
2023-05-21T04:54:21.857Z,101382.41
2023-05-21T04:56:54.673Z,101377.28
2023-05-21T04:59:27.164Z,101377.94
2023-05-21T05:01:59.758Z,101387.00
2023-05-21T05:04:32.288Z,101378.88
2023-05-21T05:07:05.001Z,101381.13
2023-05-21T05:09:37.533Z,101382.97
2023-05-21T05:12:10.031Z,101386.75
2023-05-21T05:14:42.460Z,101377.56
2023-05-21T05:17:14.945Z,101376.09
2023-05-21T05:19:47.429Z,101374.69
2023-05-21T05:22:19.863Z,101371.09
2023-05-21T05:24:52.516Z,101378.81
2023-05-21T05:27:24.972Z,101374.69
2023-05-21T05:29:57.396Z,101369.88
2023-05-21T05:32:29.915Z,101367.38
2023-05-21T05:35:03.172Z,101369.72
2023-05-21T05:37:35.600Z,101375.72
2023-05-21T05:40:08.509Z,101377.31
2023-05-21T05:42:41.046Z,101375.22
2023-05-21T05:45:13.578Z,101376.28
2023-05-21T05:47:46.302Z,101375.34
2023-05-21T05:50:20.798Z,101381.19
2023-05-21T05:52:53.393Z,101384.78
2023-05-21T05:55:26.774Z,101376.44
2023-05-21T05:57:59.363Z,101375.22
2023-05-21T06:00:32.242Z,101378.63
2023-05-21T06:03:05.361Z,101382.50
2023-05-21T06:05:38.184Z,101383.63
2023-05-21T06:08:10.761Z,101382.28
2023-05-21T06:10:43.201Z,101382.44
2023-05-21T06:13:15.653Z,101383.16
2023-05-21T06:15:48.293Z,101377.16
2023-05-21T06:18:20.938Z,101377.44
2023-05-21T06:20:53.384Z,101377.22
2023-05-21T06:23:25.880Z,101377.78
2023-05-21T06:25:58.346Z,101389.69
2023-05-21T06:28:31.193Z,101384.00
2023-05-21T06:31:03.708Z,101381.78
2023-05-21T06:33:36.286Z,101388.81
2023-05-21T06:36:08.790Z,101383.13
2023-05-21T06:38:42.714Z,101381.00
2023-05-21T06:41:15.334Z,101375.25
2023-05-21T06:43:47.808Z,101383.53
2023-05-21T06:46:20.390Z,101378.47
2023-05-21T06:48:52.916Z,101380.78
2023-05-21T06:51:25.560Z,101369.91
2023-05-21T06:53:58.207Z,101373.66
2023-05-21T06:56:30.681Z,101376.22
2023-05-21T06:59:03.240Z,101376.38
2023-05-21T07:01:35.788Z,101365.38
2023-05-21T07:04:09.334Z,101367.06
2023-05-21T07:06:41.810Z,101360.69
2023-05-21T07:09:14.367Z,101364.22
2023-05-21T07:11:47.092Z,101360.69
2023-05-21T07:14:19.612Z,101362.66
2023-05-21T07:16:52.209Z,101354.34
2023-05-21T07:19:24.752Z,101355.81
2023-05-21T07:21:57.690Z,101358.84
2023-05-21T07:24:30.225Z,101357.16
2023-05-21T07:27:08.858Z,101361.84
2023-05-21T07:29:50.590Z,101360.19
2023-05-21T07:32:23.080Z,101358.66
2023-05-21T07:34:55.930Z,101363.00
2023-05-21T07:37:31.623Z,101350.84
2023-05-21T07:40:04.583Z,101361.81
2023-05-21T07:42:37.107Z,101358.34
2023-05-21T07:45:09.952Z,101359.41
2023-05-21T07:47:42.815Z,101356.97
2023-05-21T07:50:15.365Z,101355.19
2023-05-21T07:52:47.875Z,101353.06
2023-05-21T07:55:20.671Z,101358.09
2023-05-21T07:57:53.597Z,101350.75
2023-05-21T08:00:26.636Z,101356.78
2023-05-21T08:02:59.243Z,101358.72
2023-05-21T08:05:32.521Z,101350.34
2023-05-21T08:08:05.647Z,101356.16
2023-05-21T08:10:38.173Z,101358.94
2023-05-21T08:13:13.910Z,101351.47
2023-05-21T08:15:46.648Z,101358.91
2023-05-21T08:18:19.290Z,101358.81
2023-05-21T08:20:51.851Z,101349.31
2023-05-21T08:23:24.415Z,101352.22
2023-05-21T08:25:57.141Z,101347.06
2023-05-21T08:28:30.765Z,101340.25
2023-05-21T08:31:03.245Z,101340.31
2023-05-21T08:33:38.914Z,101339.06
2023-05-21T08:36:11.497Z,101335.03
2023-05-21T08:38:44.138Z,101329.97
2023-05-21T08:41:18.378Z,101336.13
2023-05-21T08:43:57.636Z,101327.34
2023-05-21T08:46:34.764Z,101333.50
2023-05-21T08:49:12.529Z,101331.06
2023-05-21T08:51:46.494Z,101335.72
2023-05-21T08:54:19.125Z,101347.81
2023-05-21T08:56:53.235Z,101335.69
2023-05-21T08:59:27.202Z,101333.69
2023-05-21T09:02:00.237Z,101325.56
2023-05-21T09:04:34.215Z,101330.34
2023-05-21T09:07:09.834Z,101331.38
2023-05-21T09:09:49.414Z,101334.50
2023-05-21T09:12:21.996Z,101321.66
2023-05-21T09:14:56.716Z,101332.50
2023-05-21T09:17:31.497Z,101333.41
2023-05-21T09:20:17.488Z,101323.25
2023-05-21T09:22:50.695Z,101335.66
2023-05-21T09:25:29.768Z,101330.97
2023-05-21T09:28:02.259Z,101343.28
2023-05-21T09:30:36.091Z,101330.63
2023-05-21T09:33:08.838Z,101329.09
2023-05-21T09:35:50.558Z,101335.19
2023-05-21T09:38:27.084Z,101327.44
2023-05-21T09:40:59.833Z,101330.75
2023-05-21T09:43:32.911Z,101327.41
2023-05-21T09:46:05.473Z,101325.75
2023-05-21T09:48:43.107Z,101321.13
2023-05-21T09:51:17.723Z,101315.22
2023-05-21T09:53:54.344Z,101316.31
2023-05-21T09:56:29.317Z,101317.16
2023-05-21T09:59:06.765Z,101311.00
2023-05-21T10:01:39.408Z,101317.16
2023-05-21T10:04:12.924Z,101312.44
2023-05-21T10:06:47.861Z,101303.88
2023-05-21T10:09:21.428Z,101307.91
2023-05-21T10:11:55.121Z,101302.31
2023-05-21T10:14:32.154Z,101296.69
2023-05-21T10:17:06.311Z,101291.03
2023-05-21T10:19:40.533Z,101292.63
2023-05-21T10:22:13.911Z,101291.38
2023-05-21T10:24:47.673Z,101289.09
2023-05-21T10:27:22.626Z,101281.72
2023-05-21T10:29:57.621Z,101286.94
2023-05-21T10:32:30.595Z,101280.72
2023-05-21T10:35:03.434Z,101287.00
2023-05-21T10:37:36.192Z,101275.00
2023-05-21T10:40:09.241Z,101279.31
2023-05-21T10:43:01.779Z,101270.47
2023-05-21T10:46:02.225Z,101256.78
2023-05-21T10:48:52.677Z,101274.75
2023-05-21T10:51:29.106Z,101268.47
2023-05-21T10:54:01.769Z,101268.66
2023-05-21T10:56:46.473Z,101266.59
2023-05-21T10:59:28.284Z,101259.00
2023-05-21T11:02:01.778Z,101254.25
2023-05-21T11:04:39.822Z,101247.78
2023-05-21T11:07:13.039Z,101251.47
2023-05-21T11:09:45.603Z,101253.56
2023-05-21T11:12:19.820Z,101249.59
2023-05-21T11:14:58.404Z,101244.03
2023-05-21T11:17:39.998Z,101235.69
2023-05-21T11:20:14.273Z,101234.69
2023-05-21T11:22:46.888Z,101223.47
2023-05-21T11:25:19.334Z,101221.00
2023-05-21T11:27:53.576Z,101222.75
2023-05-21T11:30:25.998Z,101213.47
2023-05-21T11:33:07.763Z,101201.09
2023-05-21T11:35:46.202Z,101205.09
2023-05-21T11:38:18.715Z,101204.28
2023-05-21T11:40:54.829Z,101207.06
2023-05-21T11:43:27.534Z,101205.94
2023-05-21T11:46:00.141Z,101210.03
2023-05-21T11:48:33.042Z,101212.50
2023-05-21T11:51:06.133Z,101216.72
2023-05-21T11:53:39.477Z,101208.88
2023-05-21T11:56:12.979Z,101200.16
2023-05-21T11:58:46.565Z,101201.16
2023-05-21T12:01:26.492Z,101195.91
2023-05-21T12:03:59.063Z,101183.88
2023-05-21T12:06:31.641Z,101200.75
2023-05-21T12:09:05.060Z,101185.41
2023-05-21T12:11:39.917Z,101185.38
2023-05-21T12:14:12.837Z,101176.34
2023-05-21T12:16:45.451Z,101175.66
2023-05-21T12:19:18.943Z,101185.28
2023-05-21T12:21:51.504Z,101183.53
2023-05-21T12:24:24.027Z,101181.22
2023-05-21T12:26:59.496Z,101182.59
2023-05-21T12:29:33.063Z,101183.25
2023-05-21T12:32:09.088Z,101178.59
2023-05-21T12:34:46.265Z,101180.78
2023-05-21T12:37:27.758Z,101188.94
2023-05-21T12:40:01.359Z,101175.41
2023-05-21T12:42:34.843Z,101186.41
2023-05-21T12:45:08.722Z,101188.41
2023-05-21T12:47:41.216Z,101197.41
2023-05-21T12:50:14.140Z,101204.69
2023-05-21T12:52:46.747Z,101195.97
2023-05-21T12:55:19.257Z,101199.31
2023-05-21T12:58:02.243Z,101202.03
2023-05-21T13:00:35.247Z,101202.53
2023-05-21T13:03:08.034Z,101199.41
2023-05-21T13:05:41.829Z,101204.41
2023-05-21T13:08:16.873Z,101199.81
2023-05-21T13:10:49.402Z,101194.41
2023-05-21T13:13:22.014Z,101195.91
2023-05-21T13:15:55.150Z,101204.25
2023-05-21T13:18:27.744Z,101205.75
2023-05-21T13:21:00.325Z,101202.16
2023-05-21T13:23:33.009Z,101205.84
2023-05-21T13:26:05.513Z,101207.97
2023-05-21T13:28:38.027Z,101204.34
2023-05-21T13:31:12.066Z,101200.94
2023-05-21T13:33:44.599Z,101196.78
2023-05-21T13:36:17.200Z,101201.59
2023-05-21T13:38:49.662Z,101202.78
2023-05-21T13:41:22.174Z,101198.13
2023-05-21T13:43:54.870Z,101190.72
2023-05-21T13:46:27.813Z,101193.63
2023-05-21T13:49:00.980Z,101187.25
2023-05-21T13:51:39.078Z,101190.00
2023-05-21T13:54:14.182Z,101188.13
2023-05-21T13:56:47.301Z,101183.78
2023-05-21T13:59:20.229Z,101182.94
2023-05-21T14:01:53.453Z,101176.19
2023-05-21T14:04:26.351Z,101173.41
2023-05-21T14:06:59.133Z,101165.72
2023-05-21T14:09:32.098Z,101169.97
2023-05-21T14:12:06.580Z,101166.38
2023-05-21T14:14:39.474Z,101159.28
2023-05-21T14:17:12.290Z,101162.81
2023-05-21T14:19:44.930Z,101159.50
2023-05-21T14:22:17.446Z,101156.88
2023-05-21T14:24:50.090Z,101163.91
2023-05-21T14:27:22.587Z,101143.38
2023-05-21T14:29:55.436Z,101150.22
2023-05-21T14:32:28.003Z,101153.19
2023-05-21T14:35:00.970Z,101154.75
2023-05-21T14:37:33.657Z,101145.97
2023-05-21T14:40:07.978Z,101140.31
2023-05-21T14:42:40.833Z,101153.03
2023-05-21T14:45:18.990Z,101145.72
2023-05-21T14:47:52.509Z,101135.41
2023-05-21T14:50:25.136Z,101143.44
2023-05-21T14:52:57.944Z,101139.06
2023-05-21T14:55:30.834Z,101132.19
2023-05-21T14:58:04.967Z,101134.66
2023-05-21T15:00:38.258Z,101124.03
2023-05-21T15:03:10.788Z,101128.34
2023-05-21T15:05:43.328Z,101121.44
2023-05-21T15:08:15.778Z,101121.00
2023-05-21T15:10:48.329Z,101115.41
2023-05-21T15:13:21.396Z,101112.97
2023-05-21T15:15:54.098Z,101116.81
2023-05-21T15:18:26.649Z,101117.88
2023-05-21T15:20:59.286Z,101110.06
2023-05-21T15:23:32.261Z,101116.88
2023-05-21T15:26:04.958Z,101112.28
2023-05-21T15:28:37.579Z,101114.41
2023-05-21T15:31:11.025Z,101114.22
2023-05-21T15:33:43.587Z,101106.28
2023-05-21T15:36:16.145Z,101115.72
2023-05-21T15:38:48.714Z,101119.78
2023-05-21T15:41:22.039Z,101104.03
2023-05-21T15:43:54.663Z,101108.88
2023-05-21T15:46:27.640Z,101109.13
2023-05-21T15:49:00.708Z,101114.88
2023-05-21T15:51:33.360Z,101105.56
2023-05-21T15:54:06.454Z,101110.03
2023-05-21T15:56:40.629Z,101117.66
2023-05-21T15:59:14.048Z,101117.06
2023-05-21T16:01:47.674Z,101120.31
2023-05-21T16:04:20.562Z,101120.00
2023-05-21T16:06:53.323Z,101128.38
2023-05-21T16:09:26.184Z,101122.78
2023-05-21T16:11:59.200Z,101121.03
2023-05-21T16:14:32.079Z,101116.28
2023-05-21T16:17:04.956Z,101128.66
2023-05-21T16:19:39.187Z,101118.88
2023-05-21T16:22:12.049Z,101118.34
2023-05-21T16:24:44.739Z,101121.72
2023-05-21T16:27:18.208Z,101119.13
2023-05-21T16:29:50.891Z,101123.84
2023-05-21T16:32:23.776Z,101118.13
2023-05-21T16:34:56.772Z,101117.91
2023-05-21T16:37:29.267Z,101117.31
2023-05-21T16:40:04.277Z,101115.63
2023-05-21T16:42:36.827Z,101117.91
2023-05-21T16:45:10.964Z,101122.19
2023-05-21T16:47:43.701Z,101123.78
2023-05-21T16:50:18.453Z,101128.69
2023-05-21T16:52:51.024Z,101119.88
2023-05-21T16:55:24.640Z,101117.53
2023-05-21T16:57:57.775Z,101120.41
2023-05-21T17:00:30.710Z,101117.13
2023-05-21T17:03:03.508Z,101115.00
2023-05-21T17:05:36.410Z,101110.75
2023-05-21T17:08:09.582Z,101116.06
2023-05-21T17:10:44.015Z,101114.59
2023-05-21T17:13:22.186Z,101115.75
2023-05-21T17:15:55.855Z,101115.44
2023-05-21T17:18:28.926Z,101123.03
2023-05-21T17:21:01.729Z,101114.88
2023-05-21T17:23:35.229Z,101115.56
2023-05-21T17:26:11.388Z,101116.78
2023-05-21T17:28:44.002Z,101120.25
2023-05-21T17:31:17.039Z,101114.47
2023-05-21T17:33:49.940Z,101118.44
2023-05-21T17:36:22.519Z,101108.97
2023-05-21T17:38:55.306Z,101113.34
2023-05-21T17:41:27.987Z,101110.03
2023-05-21T17:44:00.674Z,101110.94
2023-05-21T17:46:33.245Z,101109.38
2023-05-21T17:49:08.269Z,101110.25
2023-05-21T17:51:41.232Z,101113.66
2023-05-21T17:54:13.806Z,101118.31
2023-05-21T17:56:46.690Z,101119.19
2023-05-21T17:59:19.603Z,101122.91
2023-05-21T18:01:52.085Z,101130.22
2023-05-21T18:04:24.767Z,101125.31
2023-05-21T18:06:57.301Z,101121.63
2023-05-21T18:09:29.863Z,101121.75
2023-05-21T18:12:03.557Z,101124.75
2023-05-21T18:14:36.190Z,101131.81
2023-05-21T18:17:09.056Z,101129.91
2023-05-21T18:19:41.686Z,101129.47
2023-05-21T18:22:14.317Z,101125.69
2023-05-21T18:24:46.891Z,101129.56
2023-05-21T18:27:19.364Z,101126.69
2023-05-21T18:29:52.338Z,101129.72
2023-05-21T18:32:25.001Z,101134.44
2023-05-21T18:34:58.669Z,101137.25
2023-05-21T18:37:31.386Z,101141.34
2023-05-21T18:40:07.646Z,101142.75
2023-05-21T18:42:40.515Z,101134.34
2023-05-21T18:45:13.552Z,101139.81
2023-05-21T18:47:46.061Z,101145.47
2023-05-21T18:50:25.609Z,101138.81
2023-05-21T18:52:58.461Z,101144.84
2023-05-21T18:55:31.094Z,101135.06
2023-05-21T18:58:03.614Z,101138.78
2023-05-21T19:00:38.289Z,101131.22
2023-05-21T19:03:11.467Z,101129.28
2023-05-21T19:05:44.176Z,101134.53
2023-05-21T19:08:16.817Z,101140.19
2023-05-21T19:10:49.898Z,101130.16
2023-05-21T19:13:22.719Z,101140.50
2023-05-21T19:15:57.199Z,101131.28
2023-05-21T19:18:31.614Z,101130.31
2023-05-21T19:21:04.300Z,101132.88
2023-05-21T19:23:51.213Z,101136.81
2023-05-21T19:26:25.496Z,101139.69
2023-05-21T19:28:57.972Z,101143.09
2023-05-21T19:31:30.575Z,101150.13
2023-05-21T19:34:10.163Z,101151.06
2023-05-21T19:36:52.867Z,101150.88
2023-05-21T19:39:26.503Z,101152.53
2023-05-21T19:41:59.054Z,101150.97
2023-05-21T19:44:31.706Z,101151.97
2023-05-21T19:47:04.479Z,101146.69
2023-05-21T19:49:37.108Z,101154.34
2023-05-21T19:52:10.578Z,101153.81
2023-05-21T19:54:43.085Z,101156.13
2023-05-21T19:57:16.387Z,101159.13
2023-05-21T19:59:48.942Z,101158.84
2023-05-21T20:02:23.253Z,101148.72
2023-05-21T20:04:57.659Z,101153.31
2023-05-21T20:07:30.106Z,101154.00
2023-05-21T20:10:02.762Z,101149.75
2023-05-21T20:12:38.361Z,101156.75
2023-05-21T20:15:13.168Z,101156.66
2023-05-21T20:17:46.216Z,101149.50
2023-05-21T20:20:18.995Z,101166.22
2023-05-21T20:22:51.433Z,101162.50
2023-05-21T20:25:24.026Z,101170.56
2023-05-21T20:28:03.420Z,101169.13
2023-05-21T20:30:59.029Z,101169.13
2023-05-21T20:33:33.384Z,101169.84
2023-05-21T20:36:05.898Z,101165.66
2023-05-21T20:38:42.082Z,101168.03
2023-05-21T20:41:14.717Z,101164.47
2023-05-21T20:43:47.638Z,101166.16
2023-05-21T20:46:20.175Z,101162.88
2023-05-21T20:48:53.017Z,101158.78
2023-05-21T20:51:26.532Z,101168.88
2023-05-21T20:53:59.241Z,101161.94
2023-05-21T20:56:41.394Z,101165.78
2023-05-21T20:59:15.497Z,101161.75
2023-05-21T21:01:48.194Z,101159.78
2023-05-21T21:04:20.829Z,101164.28
2023-05-21T21:06:54.097Z,101160.94
2023-05-21T21:09:26.722Z,101169.53
2023-05-21T21:12:06.272Z,101162.41
2023-05-21T21:14:44.152Z,101163.75
2023-05-21T21:17:16.780Z,101162.47
2023-05-21T21:19:49.226Z,101169.19
2023-05-21T21:22:21.905Z,101164.47
2023-05-21T21:24:54.507Z,101154.69
2023-05-21T21:27:27.107Z,101162.16
2023-05-21T21:29:59.589Z,101158.59
2023-05-21T21:32:32.133Z,101147.88
2023-05-21T21:35:04.924Z,101158.13
2023-05-21T21:37:37.425Z,101153.03
2023-05-21T21:40:10.156Z,101162.88
2023-05-21T21:42:43.191Z,101163.22
2023-05-21T21:45:16.107Z,101156.72
2023-05-21T21:47:48.898Z,101157.91
2023-05-21T21:50:21.519Z,101160.34
2023-05-21T21:52:55.936Z,101155.59
2023-05-21T21:55:29.540Z,101150.44
2023-05-21T21:58:02.036Z,101152.44
2023-05-21T22:00:34.766Z,101152.09
2023-05-21T22:03:07.244Z,101157.66
2023-05-21T22:05:39.905Z,101162.06
2023-05-21T22:08:12.449Z,101162.19
2023-05-21T22:10:44.977Z,101164.94
2023-05-21T22:13:17.414Z,101162.50
2023-05-21T22:15:50.192Z,101159.47
2023-05-21T22:18:38.760Z,101161.53
2023-05-21T22:21:14.272Z,101161.59
2023-05-21T22:23:47.269Z,101156.06
2023-05-21T22:26:20.222Z,101158.47
2023-05-21T22:28:52.768Z,101150.25
2023-05-21T22:31:25.695Z,101152.13
2023-05-21T22:33:58.231Z,101154.22
2023-05-21T22:36:30.705Z,101153.84
2023-05-21T22:39:03.440Z,101155.63
2023-05-21T22:41:35.899Z,101142.84
2023-05-21T22:44:08.384Z,101151.66
2023-05-21T22:46:42.278Z,101149.69
2023-05-21T22:49:17.616Z,101147.28
2023-05-21T22:51:51.005Z,101147.94
2023-05-21T22:54:23.777Z,101155.16
2023-05-21T22:56:56.225Z,101157.25
2023-05-21T22:59:29.011Z,101147.56
2023-05-21T23:02:01.622Z,101155.59
2023-05-21T23:04:43.136Z,101158.09
2023-05-21T23:07:16.097Z,101152.06
2023-05-21T23:09:55.738Z,101154.13
2023-05-21T23:12:28.288Z,101152.81
2023-05-21T23:15:01.000Z,101149.53
2023-05-21T23:17:33.596Z,101151.34
2023-05-21T23:20:08.815Z,101151.63
2023-05-21T23:22:41.493Z,101144.22
2023-05-21T23:25:14.142Z,101150.63
2023-05-21T23:27:46.993Z,101136.81
2023-05-21T23:30:19.483Z,101136.75
2023-05-21T23:32:52.069Z,101140.25
2023-05-21T23:35:24.634Z,101141.63
2023-05-21T23:37:57.150Z,101140.63
2023-05-21T23:40:29.671Z,101142.50
2023-05-21T23:43:02.208Z,101141.69
2023-05-21T23:45:34.745Z,101133.22
2023-05-21T23:48:07.817Z,101140.53
2023-05-21T23:50:40.530Z,101136.44
2023-05-21T23:53:13.216Z,101137.50
2023-05-21T23:55:45.840Z,101120.06
2023-05-21T23:58:18.441Z,101132.00
